createdAt,value
2024-04-23T00:02:17.693Z,2.75
2024-04-23T00:04:46.264Z,2.71
2024-04-23T00:07:15.260Z,2.68
2024-04-23T00:09:43.613Z,2.72
2024-04-23T00:12:12.401Z,2.81
2024-04-23T00:14:41.225Z,2.82
2024-04-23T00:17:10.016Z,2.78
2024-04-23T00:19:38.554Z,2.73
2024-04-23T00:22:07.827Z,2.66
2024-04-23T00:24:36.125Z,2.70
2024-04-23T00:27:05.242Z,2.72
2024-04-23T00:29:33.395Z,2.71
2024-04-23T00:32:02.439Z,2.68
2024-04-23T00:34:30.740Z,2.69
2024-04-23T00:37:01.049Z,2.75
2024-04-23T00:39:29.389Z,2.77
2024-04-23T00:41:58.137Z,2.73
2024-04-23T00:44:26.280Z,2.70
2024-04-23T00:46:56.332Z,2.75
2024-04-23T00:49:24.842Z,2.75
2024-04-23T00:51:54.779Z,2.71
2024-04-23T00:54:25.337Z,2.61
2024-04-23T00:56:56.328Z,2.72
2024-04-23T00:59:25.041Z,2.73
2024-04-23T01:01:54.936Z,2.71
2024-04-23T01:04:23.357Z,2.71
2024-04-23T01:06:53.051Z,2.70
2024-04-23T01:09:21.756Z,2.71
2024-04-23T01:11:51.556Z,2.66
2024-04-23T01:14:20.258Z,2.61
2024-04-23T01:16:50.731Z,2.64
2024-04-23T01:19:43.023Z,2.65
2024-04-23T01:22:44.776Z,2.60
2024-04-23T01:25:18.266Z,2.53
2024-04-23T01:27:47.224Z,2.57
2024-04-23T01:30:16.295Z,2.55
2024-04-23T01:32:46.609Z,2.47
2024-04-23T01:35:15.508Z,2.42
2024-04-23T01:37:49.034Z,2.44
2024-04-23T01:40:17.415Z,2.41
2024-04-23T01:42:46.907Z,2.39
2024-04-23T01:45:17.716Z,2.35
2024-04-23T01:47:50.033Z,2.42
2024-04-23T01:50:18.307Z,2.36
2024-04-23T01:52:47.374Z,2.40
2024-04-23T01:55:17.712Z,2.40
2024-04-23T01:57:46.672Z,2.37
2024-04-23T02:00:17.332Z,2.29
2024-04-23T02:02:47.722Z,2.37
2024-04-23T02:05:16.394Z,2.37
2024-04-23T02:07:46.173Z,2.38
2024-04-23T02:10:15.021Z,2.19
2024-04-23T02:12:44.531Z,2.31
2024-04-23T02:15:12.474Z,2.27
2024-04-23T02:17:41.655Z,2.22
2024-04-23T02:20:11.975Z,2.24
2024-04-23T02:22:41.214Z,2.30
2024-04-23T02:25:09.534Z,2.30
2024-04-23T02:27:38.458Z,2.25
2024-04-23T02:30:07.364Z,2.30
2024-04-23T02:32:36.265Z,2.24
2024-04-23T02:35:05.258Z,2.22
2024-04-23T02:37:34.209Z,2.24
2024-04-23T02:40:05.419Z,2.15
2024-04-23T02:42:35.479Z,2.27
2024-04-23T02:45:03.701Z,2.07
2024-04-23T02:47:32.344Z,2.15
2024-04-23T02:50:01.210Z,2.15
2024-04-23T02:52:30.595Z,2.17
2024-04-23T02:54:59.516Z,2.16
2024-04-23T02:57:29.076Z,2.14
2024-04-23T03:00:00.472Z,2.13
2024-04-23T03:02:29.481Z,2.13
2024-04-23T03:04:58.112Z,2.11
2024-04-23T03:07:27.112Z,2.06
2024-04-23T03:09:55.292Z,2.10
2024-04-23T03:12:23.860Z,2.20
2024-04-23T03:14:51.927Z,2.15
2024-04-23T03:17:20.857Z,2.19
2024-04-23T03:19:49.286Z,2.18
2024-04-23T03:22:18.199Z,2.26
2024-04-23T03:24:46.798Z,2.25
2024-04-23T03:27:16.586Z,2.21
2024-04-23T03:29:44.980Z,2.16
2024-04-23T03:32:13.932Z,2.20
2024-04-23T03:34:41.934Z,2.12
2024-04-23T03:37:10.757Z,2.12
2024-04-23T03:39:39.132Z,2.08
2024-04-23T03:42:07.907Z,2.05
2024-04-23T03:44:39.187Z,1.97
2024-04-23T03:47:09.412Z,2.04
2024-04-23T03:49:37.883Z,2.07
2024-04-23T03:52:08.523Z,2.11
2024-04-23T03:54:37.670Z,2.12
2024-04-23T03:57:06.989Z,2.12
2024-04-23T03:59:35.414Z,2.07
2024-04-23T04:02:23.276Z,2.11
2024-04-23T04:05:10.152Z,2.12
2024-04-23T04:07:38.822Z,2.03
2024-04-23T04:10:07.716Z,2.13
2024-04-23T04:12:36.805Z,2.17
2024-04-23T04:15:05.462Z,2.14
2024-04-23T04:17:34.628Z,2.21
2024-04-23T04:20:03.514Z,2.22
2024-04-23T04:22:32.514Z,2.15
2024-04-23T04:25:00.558Z,2.21
2024-04-23T04:27:29.407Z,2.16
2024-04-23T04:29:57.902Z,2.23
2024-04-23T04:32:26.704Z,2.23
2024-04-23T04:34:55.394Z,2.29
2024-04-23T04:37:24.187Z,2.31
2024-04-23T04:39:52.369Z,2.33
2024-04-23T04:42:21.174Z,2.35
2024-04-23T04:44:49.620Z,2.35
2024-04-23T04:47:18.491Z,2.31
2024-04-23T04:49:47.148Z,2.37
2024-04-23T04:52:15.905Z,2.27
2024-04-23T04:54:44.638Z,2.38
2024-04-23T04:57:13.637Z,2.39
2024-04-23T04:59:41.762Z,2.40
2024-04-23T05:02:10.471Z,2.38
2024-04-23T05:04:38.521Z,2.53
2024-04-23T05:07:07.214Z,2.56
2024-04-23T05:09:35.646Z,2.46
2024-04-23T05:12:04.528Z,2.61
2024-04-23T05:14:32.806Z,2.62
2024-04-23T05:17:01.689Z,2.58
2024-04-23T05:19:30.371Z,2.71
2024-04-23T05:21:59.212Z,2.75
2024-04-23T05:24:27.926Z,2.78
2024-04-23T05:26:56.735Z,2.77
2024-04-23T05:29:25.200Z,2.80
2024-04-23T05:32:14.924Z,2.91
2024-04-23T05:34:44.527Z,2.96
2024-04-23T05:37:14.028Z,2.93
2024-04-23T05:39:42.470Z,2.87
2024-04-23T05:42:11.180Z,2.93
2024-04-23T05:44:39.150Z,3.05
2024-04-23T05:47:08.160Z,2.77
2024-04-23T05:50:14.112Z,3.09
2024-04-23T05:53:39.195Z,3.25
2024-04-23T05:56:26.035Z,3.38
2024-04-23T05:58:54.841Z,3.31
2024-04-23T06:01:23.438Z,3.31
2024-04-23T06:03:52.282Z,3.38
2024-04-23T06:06:20.667Z,3.42
2024-04-23T06:08:52.549Z,3.42
2024-04-23T06:11:21.288Z,3.42
2024-04-23T06:13:50.134Z,3.35
2024-04-23T06:16:18.633Z,3.52
2024-04-23T06:18:47.683Z,3.63
2024-04-23T06:21:15.791Z,3.64
2024-04-23T06:23:45.467Z,3.68
2024-04-23T06:26:13.980Z,3.79
2024-04-23T06:28:43.126Z,3.75
2024-04-23T06:31:14.989Z,3.83
2024-04-23T06:33:44.205Z,3.93
2024-04-23T06:36:12.698Z,3.86
2024-04-23T06:38:41.776Z,4.02
2024-04-23T06:41:10.996Z,4.07
2024-04-23T06:43:39.783Z,4.04
2024-04-23T06:46:07.726Z,4.05
2024-04-23T06:48:36.211Z,4.14
2024-04-23T06:51:06.079Z,4.29
2024-04-23T06:53:34.818Z,4.36
2024-04-23T06:56:03.451Z,4.49
2024-04-23T06:58:32.251Z,4.65
2024-04-23T07:01:02.054Z,4.70
2024-04-23T07:03:33.331Z,4.58
2024-04-23T07:06:01.948Z,4.43
2024-04-23T07:08:30.733Z,4.65
2024-04-23T07:10:59.600Z,4.79
2024-04-23T07:13:28.184Z,4.86
2024-04-23T07:15:56.796Z,4.92
2024-04-23T07:18:25.529Z,4.98
2024-04-23T07:20:54.768Z,4.74
2024-04-23T07:23:23.419Z,4.95
2024-04-23T07:25:52.277Z,5.09
2024-04-23T07:28:21.945Z,5.25
2024-04-23T07:30:54.132Z,5.49
2024-04-23T07:33:23.517Z,5.59
2024-04-23T07:35:52.543Z,5.66
2024-04-23T07:38:21.295Z,5.80
2024-04-23T07:40:50.277Z,5.87
2024-04-23T07:43:18.980Z,5.81
2024-04-23T07:45:47.346Z,5.81
2024-04-23T07:48:16.256Z,5.88
2024-04-23T07:50:44.275Z,6.09
2024-04-23T07:53:12.983Z,6.15
2024-04-23T07:55:41.630Z,6.05
2024-04-23T07:58:10.641Z,6.24
2024-04-23T08:00:38.982Z,6.23
2024-04-23T08:03:11.445Z,6.51
2024-04-23T08:05:40.388Z,6.47
2024-04-23T08:08:09.361Z,6.33
2024-04-23T08:10:37.805Z,6.37
2024-04-23T08:13:06.983Z,6.58
2024-04-23T08:15:35.458Z,6.62
2024-04-23T08:18:04.509Z,6.22
2024-04-23T08:20:33.279Z,6.03
2024-04-23T08:23:02.093Z,5.89
2024-04-23T08:25:30.548Z,5.93
2024-04-23T08:27:59.648Z,5.83
2024-04-23T08:30:27.970Z,5.73
2024-04-23T08:32:57.335Z,5.81
2024-04-23T08:35:26.095Z,5.68
2024-04-23T08:37:55.360Z,5.55
2024-04-23T08:40:24.921Z,5.45
2024-04-23T08:42:54.210Z,5.49
2024-04-23T08:45:24.677Z,5.54
2024-04-23T08:47:53.625Z,5.47
2024-04-23T08:50:23.617Z,5.49
2024-04-23T08:52:52.689Z,5.49
2024-04-23T08:55:22.643Z,5.52
2024-04-23T08:57:53.074Z,5.65
2024-04-23T09:00:21.914Z,5.76
2024-04-23T09:02:52.268Z,5.94
2024-04-23T09:05:24.060Z,6.00
2024-04-23T09:07:53.679Z,6.03
2024-04-23T09:10:22.355Z,6.16
2024-04-23T09:12:52.247Z,6.18
2024-04-23T09:15:20.735Z,6.19
2024-04-23T09:17:57.503Z,6.35
2024-04-23T09:20:26.526Z,6.52
2024-04-23T09:23:00.638Z,6.55
2024-04-23T09:25:38.423Z,6.66
2024-04-23T09:28:09.035Z,6.65
2024-04-23T09:30:41.197Z,6.72
2024-04-23T09:33:10.238Z,6.78
2024-04-23T09:35:40.053Z,6.86
2024-04-23T09:38:09.585Z,6.93
2024-04-23T09:40:41.520Z,7.04
2024-04-23T09:43:10.656Z,7.14
2024-04-23T09:45:38.711Z,7.12
2024-04-23T09:48:08.387Z,7.30
2024-04-23T09:50:38.273Z,7.13
2024-04-23T09:53:11.196Z,7.20
2024-04-23T09:55:40.167Z,7.29
2024-04-23T09:58:08.926Z,7.45
2024-04-23T10:00:38.324Z,7.34
2024-04-23T10:03:15.910Z,7.35
2024-04-23T10:05:50.804Z,7.42
2024-04-23T10:08:41.102Z,7.57
2024-04-23T10:11:11.714Z,7.49
2024-04-23T10:13:45.593Z,7.56
2024-04-23T10:16:37.389Z,7.52
2024-04-23T10:19:10.951Z,7.44
2024-04-23T10:21:43.754Z,7.22
2024-04-23T10:24:12.396Z,7.36
2024-04-23T10:26:44.246Z,7.25
2024-04-23T10:29:15.092Z,6.99
2024-04-23T10:31:44.282Z,7.04
2024-04-23T10:34:17.679Z,7.19
2024-04-23T10:36:51.674Z,7.21
2024-04-23T10:39:26.001Z,7.19
2024-04-23T10:41:55.293Z,7.30
2024-04-23T10:44:25.187Z,7.28
2024-04-23T10:46:53.969Z,7.37
2024-04-23T10:49:26.906Z,7.50
2024-04-23T10:51:57.626Z,7.51
2024-04-23T10:54:26.326Z,7.27
2024-04-23T10:57:09.657Z,7.39
2024-04-23T10:59:39.183Z,7.49
2024-04-23T11:02:09.485Z,7.59
2024-04-23T11:04:43.820Z,7.63
2024-04-23T11:07:14.062Z,7.64
2024-04-23T11:09:44.165Z,7.79
2024-04-23T11:12:26.155Z,7.88
2024-04-23T11:14:55.362Z,8.01
2024-04-23T11:17:23.968Z,7.90
2024-04-23T11:19:54.704Z,7.96
2024-04-23T11:22:31.539Z,7.96
2024-04-23T11:25:05.363Z,7.85
2024-04-23T11:27:34.682Z,7.69
2024-04-23T11:30:03.779Z,7.85
2024-04-23T11:32:32.885Z,8.02
2024-04-23T11:35:08.395Z,8.15
2024-04-23T11:37:37.007Z,8.35
2024-04-23T11:40:06.494Z,8.38
2024-04-23T11:42:35.207Z,8.36
2024-04-23T11:45:05.471Z,8.15
2024-04-23T11:47:35.219Z,7.96
2024-04-23T11:50:08.802Z,7.87
2024-04-23T11:52:37.919Z,8.03
2024-04-23T11:55:10.791Z,8.10
2024-04-23T11:57:41.819Z,8.09
2024-04-23T12:00:11.006Z,8.20
2024-04-23T12:02:39.290Z,8.13
2024-04-23T12:05:09.324Z,7.97
2024-04-23T12:07:38.023Z,7.84
2024-04-23T12:10:07.473Z,7.70
2024-04-23T12:12:37.646Z,7.64
2024-04-23T12:15:07.913Z,7.85
2024-04-23T12:17:42.519Z,7.94
2024-04-23T12:20:12.755Z,8.04
2024-04-23T12:22:46.686Z,8.16
2024-04-23T12:25:19.392Z,8.23
2024-04-23T12:27:48.868Z,8.24
2024-04-23T12:30:20.865Z,8.32
2024-04-23T12:32:51.692Z,8.40
2024-04-23T12:35:22.260Z,8.08
2024-04-23T12:37:59.249Z,8.20
2024-04-23T12:40:28.642Z,8.29
2024-04-23T12:42:58.253Z,8.12
2024-04-23T12:45:26.975Z,8.26
2024-04-23T12:47:58.389Z,8.43
2024-04-23T12:50:27.422Z,8.59
2024-04-23T12:52:55.652Z,8.64
2024-04-23T12:55:24.698Z,8.69
2024-04-23T12:57:53.475Z,8.61
2024-04-23T13:00:22.112Z,8.70
2024-04-23T13:02:50.556Z,8.43
2024-04-23T13:05:19.368Z,8.37
2024-04-23T13:07:47.666Z,8.46
2024-04-23T13:10:16.832Z,8.52
2024-04-23T13:12:45.849Z,8.66
2024-04-23T13:15:14.948Z,8.67
2024-04-23T13:17:43.084Z,8.47
2024-04-23T13:20:12.644Z,8.59
2024-04-23T13:22:41.066Z,8.60
2024-04-23T13:25:11.173Z,8.65
2024-04-23T13:27:39.623Z,8.46
2024-04-23T13:30:08.672Z,8.41
2024-04-23T13:32:39.450Z,8.35
2024-04-23T13:35:09.088Z,8.38
2024-04-23T13:37:37.529Z,8.32
2024-04-23T13:40:08.469Z,8.19
2024-04-23T13:42:37.927Z,8.11
2024-04-23T13:45:06.954Z,8.00
2024-04-23T13:47:40.328Z,8.09
2024-04-23T13:50:10.565Z,8.20
2024-04-23T13:52:41.835Z,8.33
2024-04-23T13:55:11.402Z,8.43
2024-04-23T13:57:41.447Z,8.34
2024-04-23T14:00:10.450Z,8.38
2024-04-23T14:02:38.552Z,8.58
2024-04-23T14:05:07.529Z,8.88
2024-04-23T14:07:36.854Z,8.88
2024-04-23T14:10:06.073Z,9.11
2024-04-23T14:12:38.154Z,9.20
2024-04-23T14:15:07.612Z,9.20
2024-04-23T14:17:35.787Z,9.18
2024-04-23T14:20:05.311Z,9.25
2024-04-23T14:22:33.584Z,9.26
2024-04-23T14:25:02.567Z,9.29
2024-04-23T14:27:31.179Z,9.33
2024-04-23T14:29:59.800Z,9.18
2024-04-23T14:32:29.953Z,9.27
2024-04-23T14:35:08.557Z,9.38
2024-04-23T14:37:39.228Z,9.36
2024-04-23T14:40:09.334Z,9.37
2024-04-23T14:42:37.370Z,9.23
2024-04-23T14:45:06.879Z,9.39
2024-04-23T14:47:36.554Z,9.56
2024-04-23T14:50:08.781Z,9.61
2024-04-23T14:52:36.848Z,9.66
2024-04-23T14:55:06.009Z,9.48
2024-04-23T14:57:34.152Z,9.49
2024-04-23T15:00:03.321Z,9.38
2024-04-23T15:02:31.831Z,8.75
2024-04-23T15:05:00.918Z,8.77
2024-04-23T15:07:32.623Z,8.96
2024-04-23T15:10:01.456Z,9.12
2024-04-23T15:12:29.630Z,9.07
2024-04-23T15:14:58.516Z,9.18
2024-04-23T15:17:26.928Z,9.19
2024-04-23T15:19:59.205Z,9.14
2024-04-23T15:22:27.409Z,9.12
2024-04-23T15:24:56.282Z,9.21
2024-04-23T15:27:24.420Z,9.21
2024-04-23T15:29:53.452Z,9.27
2024-04-23T15:32:21.896Z,9.27
2024-04-23T15:34:50.949Z,9.31
2024-04-23T15:37:19.130Z,9.33
2024-04-23T15:39:47.662Z,9.40
2024-04-23T15:42:15.819Z,9.38
2024-04-23T15:44:44.945Z,9.22
2024-04-23T15:47:13.244Z,9.37
2024-04-23T15:49:42.227Z,9.30
2024-04-23T15:52:10.894Z,9.15
2024-04-23T15:54:40.322Z,9.18
2024-04-23T15:57:09.893Z,9.08
2024-04-23T15:59:38.860Z,8.86
2024-04-23T16:02:07.346Z,8.70
2024-04-23T16:04:36.138Z,8.71
2024-04-23T16:07:04.725Z,8.73
2024-04-23T16:09:33.651Z,8.73
2024-04-23T16:12:04.565Z,8.86
2024-04-23T16:14:37.140Z,8.80
2024-04-23T16:17:05.290Z,8.71
2024-04-23T16:19:34.320Z,8.79
2024-04-23T16:22:02.501Z,8.84
2024-04-23T16:24:31.271Z,8.83
2024-04-23T16:27:02.388Z,8.74
2024-04-23T16:29:32.494Z,8.71
2024-04-23T16:32:02.589Z,8.91
2024-04-23T16:34:33.155Z,8.88
2024-04-23T16:37:01.753Z,8.74
2024-04-23T16:39:31.178Z,8.88
2024-04-23T16:41:59.745Z,8.89
2024-04-23T16:44:28.551Z,8.93
2024-04-23T16:46:57.208Z,8.85
2024-04-23T16:49:25.574Z,8.79
2024-04-23T16:51:53.635Z,8.63
2024-04-23T16:54:23.321Z,8.68
2024-04-23T16:56:51.667Z,8.58
2024-04-23T16:59:20.952Z,8.47
2024-04-23T17:01:49.346Z,8.30
2024-04-23T17:04:18.017Z,8.18
2024-04-23T17:06:47.190Z,8.11
2024-04-23T17:09:16.331Z,8.05
2024-04-23T17:11:45.579Z,7.79
2024-04-23T17:14:14.500Z,7.58
2024-04-23T17:16:43.521Z,7.53
2024-04-23T17:19:12.480Z,7.29
2024-04-23T17:21:40.868Z,7.18
2024-04-23T17:24:09.624Z,7.07
2024-04-23T17:26:38.250Z,6.96
2024-04-23T17:29:07.164Z,6.84
2024-04-23T17:31:35.622Z,6.65
2024-04-23T17:34:04.582Z,6.49
2024-04-23T17:36:33.122Z,6.37
2024-04-23T17:39:02.133Z,6.23
2024-04-23T17:41:30.557Z,6.15
2024-04-23T17:43:59.273Z,6.11
2024-04-23T17:46:27.918Z,6.05
2024-04-23T17:48:56.580Z,5.92
2024-04-23T17:51:25.234Z,5.82
2024-04-23T17:53:53.753Z,5.70
2024-04-23T17:56:22.454Z,5.46
2024-04-23T17:58:51.543Z,5.41
2024-04-23T18:01:20.116Z,5.34
2024-04-23T18:03:51.677Z,5.33
2024-04-23T18:06:20.267Z,5.27
2024-04-23T18:08:49.114Z,5.15
2024-04-23T18:11:23.583Z,5.13
2024-04-23T18:13:52.495Z,5.03
2024-04-23T18:16:21.006Z,4.94
2024-04-23T18:18:52.762Z,4.91
2024-04-23T18:21:21.604Z,4.82
2024-04-23T18:23:50.300Z,4.69
2024-04-23T18:26:18.349Z,4.53
2024-04-23T18:28:47.546Z,4.59
2024-04-23T18:31:16.043Z,4.59
2024-04-23T18:33:47.114Z,4.39
2024-04-23T18:36:15.483Z,4.33
2024-04-23T18:38:44.221Z,4.16
2024-04-23T18:41:17.748Z,4.34
2024-04-23T18:43:47.726Z,4.21
2024-04-23T18:46:17.456Z,4.13
2024-04-23T18:48:47.007Z,4.12
2024-04-23T18:51:16.229Z,4.01
2024-04-23T18:53:49.117Z,3.85
2024-04-23T18:59:28.200Z,3.86
2024-04-23T19:02:00.645Z,3.79
2024-04-23T19:04:30.805Z,3.72
2024-04-23T19:07:00.116Z,3.69
2024-04-23T19:09:31.677Z,3.62
2024-04-23T19:12:01.551Z,3.61
2024-04-23T19:14:29.708Z,3.59
2024-04-23T19:16:58.564Z,3.59
2024-04-23T19:19:26.518Z,3.60
2024-04-23T19:21:56.658Z,3.59
2024-04-23T19:24:24.839Z,3.58
2024-04-23T19:27:03.870Z,3.52
2024-04-23T19:29:36.416Z,3.48
2024-04-23T19:32:06.825Z,3.46
2024-04-23T19:34:35.159Z,3.47
2024-04-23T19:37:03.991Z,3.40
2024-04-23T19:39:32.474Z,3.26
2024-04-23T19:42:01.462Z,3.31
2024-04-23T19:44:30.183Z,3.29
2024-04-23T19:46:58.903Z,3.28
2024-04-23T19:49:28.724Z,3.28
2024-04-23T19:52:01.148Z,3.28
2024-04-23T19:54:36.239Z,3.27
2024-04-23T19:57:08.251Z,3.28
2024-04-23T19:59:42.188Z,3.29
2024-04-23T20:02:13.770Z,3.28
2024-04-23T20:04:41.847Z,3.12
2024-04-23T20:07:10.440Z,3.17
2024-04-23T20:09:43.462Z,3.24
2024-04-23T20:12:12.420Z,3.19
2024-04-23T20:14:40.955Z,3.17
2024-04-23T20:17:11.988Z,3.14
2024-04-23T20:19:40.368Z,3.01
2024-04-23T20:22:09.092Z,3.01
2024-04-23T20:24:37.619Z,2.94
2024-04-23T20:27:06.334Z,2.91
2024-04-23T20:29:34.752Z,2.92
2024-04-23T20:32:03.622Z,2.85
2024-04-23T20:34:32.264Z,2.93
2024-04-23T20:37:01.172Z,2.85
2024-04-23T20:39:30.549Z,2.75
2024-04-23T20:41:59.260Z,2.83
2024-04-23T20:44:27.800Z,2.74
2024-04-23T20:46:56.497Z,2.74
2024-04-23T20:49:24.532Z,2.77
2024-04-23T20:51:53.112Z,2.59
2024-04-23T20:54:21.580Z,2.68
2024-04-23T20:56:50.191Z,2.61
2024-04-23T20:59:20.388Z,2.53
2024-04-23T21:01:49.109Z,2.58
2024-04-23T21:04:17.503Z,2.45
2024-04-23T21:06:46.244Z,2.47
2024-04-23T21:09:14.488Z,2.41
2024-04-23T21:11:43.630Z,2.48
2024-04-23T21:14:12.342Z,2.35
2024-04-23T21:16:41.158Z,2.32
2024-04-23T21:19:09.605Z,2.40
2024-04-23T21:21:38.404Z,2.30
2024-04-23T21:24:07.368Z,2.27
2024-04-23T21:26:36.299Z,2.32
2024-04-23T21:29:04.663Z,2.33
2024-04-23T21:31:33.497Z,2.30
2024-04-23T21:34:02.031Z,2.41
2024-04-23T21:36:30.758Z,2.42
2024-04-23T21:38:58.966Z,2.34
2024-04-23T21:41:27.606Z,2.42
2024-04-23T21:43:55.742Z,2.47
2024-04-23T21:46:24.809Z,2.59
2024-04-23T21:48:56.221Z,2.58
2024-04-23T21:51:27.519Z,2.61
2024-04-23T21:53:57.981Z,2.55
2024-04-23T21:56:26.641Z,2.62
2024-04-23T21:58:55.043Z,2.51
2024-04-23T22:01:24.367Z,2.54
2024-04-23T22:03:52.456Z,2.57
2024-04-23T22:06:23.054Z,2.57
2024-04-23T22:08:51.783Z,2.47
2024-04-23T22:11:20.671Z,2.38
2024-04-23T22:13:49.154Z,2.32
2024-04-23T22:16:18.731Z,2.32
2024-04-23T22:18:47.723Z,2.34
2024-04-23T22:21:16.540Z,2.25
2024-04-23T22:23:44.760Z,2.21
2024-04-23T22:26:13.868Z,2.18
2024-04-23T22:28:41.797Z,2.23
2024-04-23T22:31:10.624Z,2.28
2024-04-23T22:33:40.118Z,2.19
2024-04-23T22:36:08.967Z,2.32
2024-04-23T22:38:37.627Z,2.32
2024-04-23T22:41:06.496Z,2.27
2024-04-23T22:43:34.769Z,2.38
2024-04-23T22:46:03.810Z,2.42
2024-04-23T22:48:34.427Z,2.43
2024-04-23T22:51:03.633Z,2.42
2024-04-23T22:53:31.827Z,2.43
2024-04-23T22:56:00.295Z,2.36
2024-04-23T22:58:28.663Z,2.47
2024-04-23T23:00:57.301Z,2.46
2024-04-23T23:03:25.464Z,2.42
2024-04-23T23:05:55.361Z,2.46
2024-04-23T23:08:23.618Z,2.46
2024-04-23T23:10:52.520Z,2.44
2024-04-23T23:13:20.850Z,2.39
2024-04-23T23:15:49.564Z,2.45
2024-04-23T23:18:17.842Z,2.47
2024-04-23T23:20:46.764Z,2.46
2024-04-23T23:23:14.789Z,2.46
2024-04-23T23:25:44.117Z,2.39
2024-04-23T23:28:12.525Z,2.45
2024-04-23T23:30:41.488Z,2.29
2024-04-23T23:33:09.681Z,2.26
2024-04-23T23:35:38.938Z,2.18
2024-04-23T23:38:07.623Z,2.17
2024-04-23T23:40:36.514Z,2.16
2024-04-23T23:43:05.045Z,2.11
2024-04-23T23:45:34.258Z,2.10
2024-04-23T23:48:02.387Z,2.05
2024-04-23T23:50:31.990Z,2.06
2024-04-23T23:53:00.613Z,2.01
2024-04-23T23:55:30.023Z,2.18
2024-04-23T23:57:58.554Z,2.05
